VKG4125 LGKO-ESSA
Flight info
| Callsign | VKG4125 |
|---|---|
| Flight time | N/A |
| Altitude | 24000 |
| Route | LARKI L609 URNIL/N0439F380 UL609 MES UG18 FSK UN128 RUGAS DCT RAXAD DCT KOTUS DCT TONDO DCT ALAMU DCT LALES DCT DESEN DCT BEZMI DCT PENOR DCT ARMOD/N0439F390 DCT NILUG |
| Aircraft | A21N/M-SDE2E3FGHIJ1J3J4J5P2RWXYZ/LB2D1G1 |
Departure
| Time | 2026-05-08 12:30 |
|---|---|
| Airport | Kos International Airport "Ippokratis" (LGKO) |
Arrival
| Time | N/A |
|---|---|
| Airport | Stockholm-Arlanda Airport (ESSA) |
| Time | Latitude | Longitude | Altitude | Speed | Heading |
|---|---|---|---|---|---|
| 2026-05-08 12:13 | 36.80012 | 27.09020 | 412 ft | 0 kts | 88° |
| 2026-05-08 12:22 | 36.80012 | 27.09013 | 411 ft | 2 kts | 88° |
| 2026-05-08 12:22 | 36.80012 | 27.08988 | 410 ft | 2 kts | 89° |
| 2026-05-08 12:23 | 36.80011 | 27.08969 | 410 ft | 2 kts | 88° |
| 2026-05-08 12:23 | 36.80011 | 27.08951 | 411 ft | 2 kts | 88° |
| 2026-05-08 12:23 | 36.80013 | 27.08932 | 411 ft | 2 kts | 113° |
| 2026-05-08 12:23 | 36.80021 | 27.08915 | 412 ft | 2 kts | 132° |
| 2026-05-08 12:24 | 36.80028 | 27.08907 | 412 ft | 0 kts | 146° |
| 2026-05-08 12:24 | 36.80034 | 27.08903 | 412 ft | 0 kts | 148° |
| 2026-05-08 12:26 | 36.80024 | 27.08911 | 412 ft | 3 kts | 147° |
| 2026-05-08 12:26 | 36.79983 | 27.08943 | 411 ft | 9 kts | 147° |
| 2026-05-08 12:26 | 36.79903 | 27.08978 | 410 ft | 15 kts | 174° |
| 2026-05-08 12:27 | 36.79779 | 27.08985 | 407 ft | 20 kts | 178° |
| 2026-05-08 12:27 | 36.79624 | 27.09002 | 405 ft | 24 kts | 161° |
| 2026-05-08 12:27 | 36.79522 | 27.09066 | 402 ft | 26 kts | 154° |
| 2026-05-08 12:27 | 36.79295 | 27.09237 | 396 ft | 30 kts | 147° |
| 2026-05-08 12:28 | 36.79109 | 27.09382 | 391 ft | 31 kts | 148° |
| 2026-05-08 12:28 | 36.78921 | 27.09528 | 386 ft | 31 kts | 147° |
| 2026-05-08 12:28 | 36.78739 | 27.09669 | 383 ft | 30 kts | 147° |
| 2026-05-08 12:28 | 36.78621 | 27.09770 | 380 ft | 10 kts | 127° |
| 2026-05-08 12:29 | 36.78582 | 27.09828 | 379 ft | 6 kts | 171° |
| 2026-05-08 12:29 | 36.78582 | 27.09790 | 380 ft | 7 kts | 333° |
| 2026-05-08 12:29 | 36.78613 | 27.09768 | 380 ft | 7 kts | 329° |
| 2026-05-08 12:29 | 36.78936 | 27.09518 | 387 ft | 101 kts | 328° |
| 2026-05-08 12:30 | 36.79772 | 27.08871 | 518 ft | 170 kts | 328° |
| 2026-05-08 12:30 | 36.80775 | 27.08096 | 1460 ft | 173 kts | 320° |
| 2026-05-08 12:30 | 36.81321 | 27.06842 | 2442 ft | 178 kts | 275° |
| 2026-05-08 12:30 | 36.81116 | 27.05233 | 3179 ft | 203 kts | 258° |
| 2026-05-08 12:31 | 36.81095 | 27.03414 | 3889 ft | 230 kts | 285° |
| 2026-05-08 12:31 | 36.81947 | 27.01623 | 4793 ft | 252 kts | 308° |
| 2026-05-08 12:31 | 36.83118 | 26.99943 | 5796 ft | 266 kts | 309° |
| 2026-05-08 12:31 | 36.84275 | 26.98175 | 7002 ft | 270 kts | 306° |
| 2026-05-08 12:32 | 36.85377 | 26.96319 | 8161 ft | 274 kts | 304° |
| 2026-05-08 12:32 | 36.86462 | 26.94359 | 9274 ft | 280 kts | 302° |
| 2026-05-08 12:32 | 36.87538 | 26.92331 | 10339 ft | 286 kts | 301° |
| 2026-05-08 12:32 | 36.88617 | 26.90247 | 11288 ft | 295 kts | 300° |
| 2026-05-08 12:33 | 36.89725 | 26.88077 | 12276 ft | 301 kts | 300° |
| 2026-05-08 12:33 | 36.90849 | 26.85859 | 13313 ft | 305 kts | 300° |
| 2026-05-08 12:33 | 36.91980 | 26.83623 | 14328 ft | 309 kts | 300° |
| 2026-05-08 12:33 | 36.93110 | 26.81385 | 15385 ft | 309 kts | 301° |
| 2026-05-08 12:34 | 36.94245 | 26.79137 | 16381 ft | 311 kts | 301° |
| 2026-05-08 12:34 | 36.95668 | 26.77074 | 17123 ft | 324 kts | 320° |
| 2026-05-08 12:34 | 36.97729 | 26.75842 | 17988 ft | 336 kts | 339° |
| 2026-05-08 12:34 | 36.99998 | 26.75111 | 18950 ft | 340 kts | 343° |
| 2026-05-08 12:35 | 37.02316 | 26.74656 | 19817 ft | 346 kts | 349° |
| 2026-05-08 12:35 | 37.04749 | 26.74568 | 20653 ft | 354 kts | 356° |
| 2026-05-08 12:35 | 37.07206 | 26.74899 | 21442 ft | 364 kts | 4° |
| 2026-05-08 12:35 | 37.09699 | 26.75519 | 22278 ft | 367 kts | 5° |
| 2026-05-08 12:36 | 37.12219 | 26.76203 | 23067 ft | 371 kts | 6° |
| 2026-05-08 12:36 | 37.14780 | 26.76909 | 23829 ft | 375 kts | 6° |
| 2026-05-08 12:36 | 37.17334 | 26.77611 | 24534 ft | 379 kts | 6° |
| 2026-05-08 12:36 | 37.19918 | 26.78320 | 25212 ft | 384 kts | 6° |
| 2026-05-08 12:37 | 37.22541 | 26.79041 | 25864 ft | 388 kts | 5° |
| 2026-05-08 12:37 | 37.25194 | 26.79770 | 26488 ft | 393 kts | 5° |
| 2026-05-08 12:37 | 37.27843 | 26.80496 | 27101 ft | 396 kts | 6° |
| 2026-05-08 12:37 | 37.30552 | 26.81241 | 27675 ft | 401 kts | 6° |
| 2026-05-08 12:38 | 37.33349 | 26.82008 | 27974 ft | 413 kts | 6° |
| 2026-05-08 12:38 | 37.36179 | 26.82664 | 28186 ft | 418 kts | 358° |
| 2026-05-08 12:38 | 37.39067 | 26.82457 | 28402 ft | 416 kts | 343° |
| 2026-05-08 12:38 | 37.41782 | 26.81279 | 28626 ft | 414 kts | 328° |
| 2026-05-08 12:39 | 37.44140 | 26.79255 | 29025 ft | 411 kts | 315° |
| 2026-05-08 12:39 | 37.46310 | 26.76925 | 29522 ft | 413 kts | 315° |
| 2026-05-08 12:39 | 37.48488 | 26.74572 | 30044 ft | 414 kts | 315° |
| 2026-05-08 12:39 | 37.50677 | 26.72210 | 30700 ft | 412 kts | 314° |
| 2026-05-08 12:40 | 37.52835 | 26.69880 | 31385 ft | 408 kts | 314° |
| 2026-05-08 12:40 | 37.54982 | 26.67558 | 32053 ft | 405 kts | 313° |
| 2026-05-08 12:40 | 37.57085 | 26.65283 | 32691 ft | 401 kts | 313° |
| 2026-05-08 12:40 | 37.59174 | 26.63015 | 33336 ft | 397 kts | 312° |
| 2026-05-08 12:41 | 37.61258 | 26.60754 | 33929 ft | 394 kts | 312° |
| 2026-05-08 12:41 | 37.63309 | 26.58516 | 34514 ft | 392 kts | 312° |
| 2026-05-08 12:41 | 37.65385 | 26.56256 | 35089 ft | 390 kts | 312° |
| 2026-05-08 12:41 | 37.67426 | 26.54032 | 35608 ft | 389 kts | 313° |
| 2026-05-08 12:42 | 37.69462 | 26.51817 | 36124 ft | 388 kts | 312° |
| 2026-05-08 12:42 | 37.71486 | 26.49618 | 36588 ft | 387 kts | 313° |
| 2026-05-08 12:42 | 37.73535 | 26.47388 | 36945 ft | 388 kts | 313° |
| 2026-05-08 12:42 | 37.75574 | 26.45171 | 37238 ft | 391 kts | 313° |
| 2026-05-08 12:43 | 37.77626 | 26.42939 | 37556 ft | 392 kts | 313° |
| 2026-05-08 12:43 | 37.79694 | 26.40686 | 37864 ft | 393 kts | 313° |
| 2026-05-08 12:43 | 37.81769 | 26.38427 | 38103 ft | 395 kts | 313° |
| 2026-05-08 12:43 | 37.83866 | 26.36137 | 38127 ft | 397 kts | 313° |
| 2026-05-08 12:44 | 37.88036 | 26.31577 | 38134 ft | 397 kts | 313° |
| 2026-05-08 12:44 | 37.92188 | 26.27026 | 38130 ft | 398 kts | 313° |
| 2026-05-08 12:45 | 37.96343 | 26.22458 | 38132 ft | 397 kts | 313° |
| 2026-05-08 12:45 | 38.00530 | 26.17855 | 38132 ft | 398 kts | 313° |
| 2026-05-08 12:46 | 38.04698 | 26.13260 | 38129 ft | 400 kts | 313° |
| 2026-05-08 12:46 | 38.08885 | 26.08634 | 38130 ft | 401 kts | 313° |
| 2026-05-08 12:47 | 38.13086 | 26.03989 | 38134 ft | 401 kts | 313° |
| 2026-05-08 12:47 | 38.17276 | 25.99346 | 38131 ft | 400 kts | 313° |
| 2026-05-08 12:48 | 38.21484 | 25.94676 | 38117 ft | 402 kts | 313° |
| 2026-05-08 12:48 | 38.25715 | 25.90075 | 38119 ft | 404 kts | 315° |
| 2026-05-08 12:49 | 38.30167 | 25.85718 | 38128 ft | 405 kts | 316° |
| 2026-05-08 12:49 | 38.34662 | 25.81352 | 38124 ft | 407 kts | 316° |
| 2026-05-08 12:50 | 38.39153 | 25.76976 | 38119 ft | 407 kts | 316° |
| 2026-05-08 12:50 | 38.43617 | 25.72611 | 38110 ft | 407 kts | 316° |
| 2026-05-08 12:51 | 38.50368 | 25.66006 | 38108 ft | 408 kts | 316° |
| 2026-05-08 12:52 | 38.54860 | 25.61600 | 38093 ft | 409 kts | 316° |
| 2026-05-08 12:52 | 38.61638 | 25.54947 | 38089 ft | 410 kts | 316° |
| 2026-05-08 12:53 | 38.66148 | 25.50504 | 38097 ft | 411 kts | 316° |
| 2026-05-08 12:53 | 38.70646 | 25.46072 | 38095 ft | 411 kts | 316° |
| 2026-05-08 12:54 | 38.75158 | 25.41618 | 38085 ft | 411 kts | 316° |
| 2026-05-08 12:54 | 38.79695 | 25.37134 | 38087 ft | 411 kts | 316° |
| 2026-05-08 12:55 | 38.84223 | 25.32646 | 38087 ft | 411 kts | 315° |
| 2026-05-08 12:55 | 38.88736 | 25.28169 | 38084 ft | 412 kts | 315° |
| 2026-05-08 12:56 | 38.93250 | 25.23686 | 38084 ft | 413 kts | 315° |
| 2026-05-08 12:56 | 38.97770 | 25.19182 | 38078 ft | 413 kts | 315° |
| 2026-05-08 12:57 | 39.02328 | 25.14641 | 38070 ft | 414 kts | 315° |
| 2026-05-08 12:57 | 39.06849 | 25.10124 | 38066 ft | 415 kts | 315° |
| 2026-05-08 12:58 | 39.11418 | 25.05550 | 38067 ft | 415 kts | 315° |
| 2026-05-08 12:58 | 39.15969 | 25.00999 | 38070 ft | 415 kts | 315° |
| 2026-05-08 12:59 | 39.20517 | 24.96436 | 38067 ft | 416 kts | 315° |
| 2026-05-08 12:59 | 39.25052 | 24.91878 | 38062 ft | 416 kts | 315° |
| 2026-05-08 13:00 | 39.29620 | 24.87281 | 38066 ft | 416 kts | 315° |
| 2026-05-08 13:00 | 39.34157 | 24.82707 | 38067 ft | 417 kts | 315° |
| 2026-05-08 13:01 | 39.38718 | 24.78102 | 38062 ft | 417 kts | 315° |
| 2026-05-08 13:01 | 39.43287 | 24.73477 | 38065 ft | 417 kts | 316° |
| 2026-05-08 13:02 | 39.47848 | 24.68854 | 38065 ft | 417 kts | 316° |
| 2026-05-08 13:02 | 39.52401 | 24.64232 | 38058 ft | 418 kts | 316° |
| 2026-05-08 13:03 | 39.56971 | 24.59581 | 38062 ft | 419 kts | 316° |
| 2026-05-08 13:03 | 39.61553 | 24.54917 | 38067 ft | 419 kts | 316° |
| 2026-05-08 13:04 | 39.66125 | 24.50252 | 38060 ft | 419 kts | 316° |
| 2026-05-08 13:04 | 39.70701 | 24.45571 | 38061 ft | 421 kts | 316° |
| 2026-05-08 13:05 | 39.75288 | 24.40872 | 38065 ft | 422 kts | 316° |
| 2026-05-08 13:05 | 39.79876 | 24.36161 | 38057 ft | 422 kts | 316° |
| 2026-05-08 13:06 | 39.84469 | 24.31439 | 38058 ft | 421 kts | 315° |
| 2026-05-08 13:06 | 39.89041 | 24.26729 | 38053 ft | 421 kts | 315° |
| 2026-05-08 13:07 | 39.93620 | 24.22004 | 38058 ft | 421 kts | 315° |
| 2026-05-08 13:07 | 39.98216 | 24.17252 | 38058 ft | 424 kts | 315° |
| 2026-05-08 13:08 | 40.02829 | 24.12467 | 38066 ft | 424 kts | 315° |
| 2026-05-08 13:08 | 40.07407 | 24.07715 | 38062 ft | 423 kts | 315° |
| 2026-05-08 13:09 | 40.12017 | 24.02922 | 38062 ft | 424 kts | 316° |
| 2026-05-08 13:09 | 40.16610 | 23.98140 | 38066 ft | 425 kts | 316° |
| 2026-05-08 13:10 | 40.21214 | 23.93342 | 38063 ft | 425 kts | 316° |
| 2026-05-08 13:10 | 40.25867 | 23.88479 | 38062 ft | 427 kts | 316° |
| 2026-05-08 13:11 | 40.30483 | 23.83647 | 38060 ft | 428 kts | 316° |
| 2026-05-08 13:11 | 40.35111 | 23.78793 | 38062 ft | 428 kts | 316° |
| 2026-05-08 13:12 | 40.39746 | 23.73926 | 38064 ft | 429 kts | 316° |
| 2026-05-08 13:12 | 40.44402 | 23.69024 | 37970 ft | 429 kts | 316° |
| 2026-05-08 13:13 | 40.49050 | 23.64124 | 38058 ft | 429 kts | 316° |
| 2026-05-08 13:13 | 40.53693 | 23.59220 | 38066 ft | 430 kts | 316° |
| 2026-05-08 13:14 | 40.58331 | 23.54312 | 38073 ft | 430 kts | 316° |
| 2026-05-08 13:14 | 40.62991 | 23.49372 | 38068 ft | 431 kts | 316° |
| 2026-05-08 13:15 | 40.67651 | 23.44422 | 38065 ft | 432 kts | 316° |
| 2026-05-08 13:15 | 40.72319 | 23.39459 | 38066 ft | 432 kts | 316° |
| 2026-05-08 13:16 | 40.76984 | 23.34486 | 38068 ft | 432 kts | 316° |
| 2026-05-08 13:16 | 40.81612 | 23.29542 | 38068 ft | 432 kts | 316° |
| 2026-05-08 13:17 | 40.86284 | 23.24542 | 38066 ft | 432 kts | 316° |
| 2026-05-08 13:17 | 40.90918 | 23.19573 | 38072 ft | 432 kts | 316° |
| 2026-05-08 13:18 | 40.95580 | 23.14567 | 38070 ft | 432 kts | 316° |
| 2026-05-08 13:18 | 41.00262 | 23.09528 | 38065 ft | 433 kts | 316° |
| 2026-05-08 13:19 | 41.04911 | 23.04514 | 38068 ft | 433 kts | 316° |
| 2026-05-08 13:19 | 41.09654 | 22.99502 | 38081 ft | 436 kts | 319° |
| 2026-05-08 13:20 | 41.14707 | 22.94955 | 38075 ft | 437 kts | 322° |
| 2026-05-08 13:20 | 41.19807 | 22.90551 | 38072 ft | 440 kts | 322° |
| 2026-05-08 13:21 | 41.24952 | 22.86099 | 38068 ft | 440 kts | 322° |
| 2026-05-08 13:21 | 41.30077 | 22.81687 | 38072 ft | 440 kts | 324° |
| 2026-05-08 13:22 | 41.35467 | 22.77823 | 38069 ft | 445 kts | 330° |
| 2026-05-08 13:22 | 41.41183 | 22.74561 | 38078 ft | 447 kts | 333° |
| 2026-05-08 13:23 | 41.46927 | 22.71398 | 38074 ft | 447 kts | 333° |
| 2026-05-08 13:23 | 41.52646 | 22.68240 | 38078 ft | 447 kts | 333° |
| 2026-05-08 13:24 | 41.58387 | 22.65056 | 38070 ft | 447 kts | 333° |
| 2026-05-08 13:24 | 41.64120 | 22.61866 | 38078 ft | 448 kts | 333° |
| 2026-05-08 13:25 | 41.69867 | 22.58663 | 38063 ft | 449 kts | 333° |
| 2026-05-08 13:25 | 41.75631 | 22.55442 | 38062 ft | 449 kts | 333° |
| 2026-05-08 13:26 | 41.81356 | 22.52240 | 38081 ft | 449 kts | 333° |
| 2026-05-08 13:26 | 41.87125 | 22.49004 | 38068 ft | 450 kts | 333° |
| 2026-05-08 13:27 | 41.92891 | 22.45763 | 38068 ft | 451 kts | 333° |
| 2026-05-08 13:27 | 41.98729 | 22.42478 | 38063 ft | 451 kts | 334° |
| 2026-05-08 13:28 | 42.04489 | 22.39230 | 38069 ft | 451 kts | 333° |
| 2026-05-08 13:28 | 42.10319 | 22.35939 | 38084 ft | 451 kts | 333° |
| 2026-05-08 13:29 | 42.16133 | 22.32645 | 38077 ft | 451 kts | 333° |
| 2026-05-08 13:29 | 42.21944 | 22.29348 | 38070 ft | 451 kts | 333° |
| 2026-05-08 13:30 | 42.27685 | 22.26082 | 38073 ft | 451 kts | 333° |
| 2026-05-08 13:30 | 42.33363 | 22.22479 | 38075 ft | 449 kts | 328° |
| 2026-05-08 13:31 | 42.38865 | 22.18506 | 38072 ft | 449 kts | 328° |
| 2026-05-08 13:31 | 42.44358 | 22.14504 | 38065 ft | 448 kts | 328° |
| 2026-05-08 13:32 | 42.49838 | 22.10511 | 38063 ft | 449 kts | 328° |
| 2026-05-08 13:32 | 42.55331 | 22.06504 | 38074 ft | 450 kts | 328° |
| 2026-05-08 13:33 | 42.60817 | 22.02495 | 38067 ft | 450 kts | 328° |
| 2026-05-08 13:33 | 42.66314 | 21.98471 | 38064 ft | 450 kts | 328° |
| 2026-05-08 13:34 | 42.71808 | 21.94443 | 38051 ft | 450 kts | 328° |
| 2026-05-08 13:34 | 42.77296 | 21.90412 | 38053 ft | 450 kts | 328° |
| 2026-05-08 13:35 | 42.82771 | 21.86380 | 38052 ft | 450 kts | 328° |
| 2026-05-08 13:35 | 42.88284 | 21.82313 | 38043 ft | 450 kts | 328° |
| 2026-05-08 13:36 | 42.93757 | 21.78267 | 38041 ft | 450 kts | 328° |
| 2026-05-08 13:36 | 42.99261 | 21.74187 | 38027 ft | 450 kts | 328° |
| 2026-05-08 13:37 | 43.04761 | 21.70103 | 38038 ft | 450 kts | 328° |
| 2026-05-08 13:37 | 43.10226 | 21.66039 | 38054 ft | 450 kts | 328° |
| 2026-05-08 13:38 | 43.15711 | 21.61950 | 38055 ft | 450 kts | 328° |
| 2026-05-08 13:38 | 43.21191 | 21.57859 | 38048 ft | 450 kts | 328° |
| 2026-05-08 13:39 | 43.26694 | 21.53740 | 38049 ft | 449 kts | 328° |
| 2026-05-08 13:39 | 43.32166 | 21.49635 | 38045 ft | 449 kts | 328° |
| 2026-05-08 13:40 | 43.37607 | 21.45543 | 38034 ft | 449 kts | 328° |
| 2026-05-08 13:40 | 43.43080 | 21.41419 | 38043 ft | 449 kts | 328° |
| 2026-05-08 13:41 | 43.48548 | 21.37297 | 38040 ft | 450 kts | 328° |
| 2026-05-08 13:41 | 43.54012 | 21.33165 | 38035 ft | 449 kts | 327° |
| 2026-05-08 13:42 | 43.59447 | 21.29046 | 38045 ft | 448 kts | 327° |
| 2026-05-08 13:42 | 43.64909 | 21.24897 | 38029 ft | 449 kts | 327° |
| 2026-05-08 13:43 | 43.70346 | 21.20759 | 38035 ft | 449 kts | 327° |
| 2026-05-08 13:43 | 43.75814 | 21.16589 | 38046 ft | 449 kts | 327° |
| 2026-05-08 13:44 | 43.81273 | 21.12420 | 38040 ft | 449 kts | 327° |
| 2026-05-08 13:44 | 43.86736 | 21.08235 | 38040 ft | 448 kts | 327° |
| 2026-05-08 13:45 | 43.92178 | 21.04060 | 38042 ft | 448 kts | 327° |
| 2026-05-08 13:45 | 43.97609 | 20.99884 | 38036 ft | 449 kts | 327° |
| 2026-05-08 13:46 | 44.03061 | 20.95679 | 38047 ft | 449 kts | 327° |
| 2026-05-08 13:46 | 44.08493 | 20.91484 | 38042 ft | 449 kts | 327° |
| 2026-05-08 13:47 | 44.13943 | 20.87264 | 38036 ft | 449 kts | 327° |
| 2026-05-08 13:47 | 44.19398 | 20.83039 | 38038 ft | 449 kts | 327° |
| 2026-05-08 13:48 | 44.24832 | 20.78819 | 38032 ft | 448 kts | 327° |
| 2026-05-08 13:48 | 44.30272 | 20.74581 | 38025 ft | 447 kts | 327° |
| 2026-05-08 13:49 | 44.35666 | 20.70366 | 38023 ft | 447 kts | 327° |
| 2026-05-08 13:49 | 44.41077 | 20.66133 | 38026 ft | 447 kts | 327° |
| 2026-05-08 13:50 | 44.46465 | 20.61908 | 38023 ft | 447 kts | 327° |
| 2026-05-08 13:50 | 44.51904 | 20.57631 | 38023 ft | 447 kts | 327° |
| 2026-05-08 13:51 | 44.57305 | 20.53382 | 38023 ft | 447 kts | 327° |
| 2026-05-08 13:51 | 44.62694 | 20.49134 | 38027 ft | 447 kts | 327° |
| 2026-05-08 13:52 | 44.68116 | 20.44846 | 38031 ft | 447 kts | 327° |
| 2026-05-08 13:52 | 44.73515 | 20.40570 | 38029 ft | 446 kts | 327° |
| 2026-05-08 13:53 | 44.78889 | 20.36301 | 38025 ft | 447 kts | 327° |
| 2026-05-08 13:53 | 44.84285 | 20.32007 | 38021 ft | 445 kts | 326° |
| 2026-05-08 13:54 | 44.89669 | 20.27713 | 38019 ft | 446 kts | 326° |
| 2026-05-08 13:54 | 44.95039 | 20.23422 | 38019 ft | 444 kts | 326° |
| 2026-05-08 13:55 | 45.00394 | 20.19129 | 38023 ft | 444 kts | 326° |
| 2026-05-08 13:56 | 45.08463 | 20.12647 | 38018 ft | 445 kts | 326° |
| 2026-05-08 13:56 | 45.13816 | 20.08335 | 38017 ft | 445 kts | 326° |
| 2026-05-08 13:57 | 45.19178 | 20.04009 | 38017 ft | 445 kts | 326° |
| 2026-05-08 13:57 | 45.24550 | 19.99664 | 38018 ft | 444 kts | 326° |
| 2026-05-08 13:58 | 45.29879 | 19.95340 | 38015 ft | 443 kts | 326° |
| 2026-05-08 13:58 | 45.35224 | 19.91063 | 38010 ft | 443 kts | 327° |
| 2026-05-08 13:59 | 45.40617 | 19.86833 | 38003 ft | 442 kts | 327° |
| 2026-05-08 13:59 | 45.45974 | 19.82612 | 38004 ft | 443 kts | 326° |
| 2026-05-08 14:00 | 45.51366 | 19.78352 | 38007 ft | 442 kts | 327° |
| 2026-05-08 14:00 | 45.56744 | 19.74086 | 38010 ft | 443 kts | 326° |
| 2026-05-08 14:01 | 45.62109 | 19.69821 | 38011 ft | 443 kts | 326° |
| 2026-05-08 14:01 | 45.67442 | 19.65569 | 38014 ft | 443 kts | 326° |
| 2026-05-08 14:02 | 45.72831 | 19.61269 | 38015 ft | 442 kts | 326° |
| 2026-05-08 14:02 | 45.78159 | 19.57004 | 38017 ft | 442 kts | 326° |
| 2026-05-08 14:03 | 45.83490 | 19.52729 | 38021 ft | 441 kts | 326° |
| 2026-05-08 14:03 | 45.88825 | 19.48443 | 38026 ft | 440 kts | 326° |
| 2026-05-08 14:04 | 45.94155 | 19.44146 | 38027 ft | 440 kts | 326° |
| 2026-05-08 14:04 | 45.99483 | 19.39844 | 38030 ft | 440 kts | 326° |
| 2026-05-08 14:05 | 46.04903 | 19.35648 | 38031 ft | 442 kts | 329° |
| 2026-05-08 14:05 | 46.10535 | 19.32154 | 38024 ft | 444 kts | 333° |
| 2026-05-08 14:06 | 46.16230 | 19.28815 | 38023 ft | 443 kts | 333° |
| 2026-05-08 14:06 | 46.21960 | 19.25448 | 38021 ft | 443 kts | 333° |
| 2026-05-08 14:07 | 46.27660 | 19.22081 | 38027 ft | 444 kts | 332° |
| 2026-05-08 14:07 | 46.33343 | 19.18714 | 38027 ft | 443 kts | 333° |
| 2026-05-08 14:08 | 46.39019 | 19.15345 | 38026 ft | 443 kts | 332° |
| 2026-05-08 14:08 | 46.44719 | 19.11952 | 38027 ft | 443 kts | 332° |
| 2026-05-08 14:09 | 46.50410 | 19.08554 | 38022 ft | 443 kts | 332° |
| 2026-05-08 14:09 | 46.56092 | 19.05157 | 38028 ft | 443 kts | 332° |
| 2026-05-08 14:10 | 46.61744 | 19.01766 | 38030 ft | 442 kts | 332° |
| 2026-05-08 14:10 | 46.67406 | 18.98366 | 38025 ft | 442 kts | 332° |
| 2026-05-08 14:11 | 46.73079 | 18.94949 | 38032 ft | 442 kts | 332° |
| 2026-05-08 14:11 | 46.78726 | 18.91540 | 38032 ft | 442 kts | 332° |
| 2026-05-08 14:12 | 46.84407 | 18.88104 | 38020 ft | 442 kts | 332° |
| 2026-05-08 14:12 | 46.90048 | 18.84685 | 38027 ft | 443 kts | 332° |
| 2026-05-08 14:13 | 46.95718 | 18.81235 | 38019 ft | 442 kts | 332° |
| 2026-05-08 14:13 | 47.01388 | 18.77782 | 38012 ft | 441 kts | 332° |
| 2026-05-08 14:14 | 47.07019 | 18.74343 | 38019 ft | 441 kts | 332° |
| 2026-05-08 14:14 | 47.12666 | 18.70886 | 38016 ft | 441 kts | 332° |
| 2026-05-08 14:15 | 47.18309 | 18.67423 | 38013 ft | 441 kts | 332° |
| 2026-05-08 14:15 | 47.23975 | 18.63939 | 38008 ft | 441 kts | 332° |
| 2026-05-08 14:16 | 47.29624 | 18.60457 | 38018 ft | 441 kts | 332° |
| 2026-05-08 14:16 | 47.35267 | 18.56966 | 38021 ft | 442 kts | 332° |
| 2026-05-08 14:17 | 47.40921 | 18.53461 | 38030 ft | 441 kts | 332° |
| 2026-05-08 14:17 | 47.46605 | 18.49934 | 38044 ft | 441 kts | 332° |
| 2026-05-08 14:18 | 47.52249 | 18.46423 | 38024 ft | 441 kts | 332° |
| 2026-05-08 14:18 | 47.57893 | 18.42904 | 38018 ft | 442 kts | 332° |
| 2026-05-08 14:19 | 47.63530 | 18.39383 | 38017 ft | 442 kts | 332° |
| 2026-05-08 14:19 | 47.69160 | 18.35856 | 38024 ft | 441 kts | 332° |
| 2026-05-08 14:20 | 47.74857 | 18.32382 | 38024 ft | 443 kts | 333° |
| 2026-05-08 14:20 | 47.80619 | 18.29257 | 38031 ft | 444 kts | 334° |
| 2026-05-08 14:21 | 47.86389 | 18.26165 | 38017 ft | 444 kts | 334° |
| 2026-05-08 14:21 | 47.92198 | 18.23034 | 38019 ft | 443 kts | 334° |
| 2026-05-08 14:22 | 47.97968 | 18.19910 | 38022 ft | 443 kts | 334° |
| 2026-05-08 14:22 | 48.03763 | 18.16763 | 38034 ft | 443 kts | 334° |
| 2026-05-08 14:23 | 48.09528 | 18.13624 | 38015 ft | 443 kts | 334° |
| 2026-05-08 14:23 | 48.15301 | 18.10475 | 38021 ft | 443 kts | 334° |
| 2026-05-08 14:24 | 48.21041 | 18.07332 | 38029 ft | 443 kts | 334° |
| 2026-05-08 14:24 | 48.26840 | 18.04150 | 38031 ft | 443 kts | 334° |
| 2026-05-08 14:25 | 48.32603 | 18.00982 | 38032 ft | 443 kts | 334° |
| 2026-05-08 14:25 | 48.38392 | 17.97792 | 38045 ft | 443 kts | 334° |
| 2026-05-08 14:26 | 48.44137 | 17.94617 | 38040 ft | 442 kts | 335° |
| 2026-05-08 14:26 | 48.49878 | 17.91440 | 38052 ft | 442 kts | 335° |
| 2026-05-08 14:27 | 48.55632 | 17.88246 | 38056 ft | 442 kts | 334° |
| 2026-05-08 14:27 | 48.61211 | 17.85138 | 38048 ft | 442 kts | 334° |
| 2026-05-08 14:28 | 48.66964 | 17.81925 | 38057 ft | 442 kts | 335° |
| 2026-05-08 14:28 | 48.72698 | 17.78721 | 38060 ft | 441 kts | 335° |
| 2026-05-08 14:29 | 48.78472 | 17.75484 | 38062 ft | 442 kts | 335° |
| 2026-05-08 14:29 | 48.84304 | 17.72565 | 38062 ft | 446 kts | 340° |
| 2026-05-08 14:30 | 48.90374 | 17.70596 | 38053 ft | 450 kts | 346° |
| 2026-05-08 14:30 | 48.96601 | 17.69552 | 38058 ft | 452 kts | 350° |
| 2026-05-08 14:31 | 49.02828 | 17.68736 | 38052 ft | 452 kts | 351° |
| 2026-05-08 14:31 | 49.09082 | 17.67921 | 38068 ft | 452 kts | 351° |
| 2026-05-08 14:32 | 49.18461 | 17.66668 | 38067 ft | 452 kts | 351° |
| 2026-05-08 14:32 | 49.24696 | 17.65827 | 38063 ft | 451 kts | 351° |
| 2026-05-08 14:33 | 49.30904 | 17.64986 | 38068 ft | 451 kts | 351° |
| 2026-05-08 14:33 | 49.37136 | 17.64136 | 38070 ft | 452 kts | 351° |
| 2026-05-08 14:34 | 49.43393 | 17.63284 | 38075 ft | 452 kts | 351° |
| 2026-05-08 14:34 | 49.49636 | 17.62433 | 38075 ft | 451 kts | 351° |
| 2026-05-08 14:35 | 49.55849 | 17.61583 | 38078 ft | 451 kts | 351° |
| 2026-05-08 14:35 | 49.62089 | 17.60726 | 38090 ft | 451 kts | 351° |
| 2026-05-08 14:36 | 49.68346 | 17.59868 | 38090 ft | 451 kts | 351° |
| 2026-05-08 14:36 | 49.74575 | 17.59012 | 38096 ft | 451 kts | 351° |
| 2026-05-08 14:37 | 49.80778 | 17.58153 | 38075 ft | 451 kts | 351° |
| 2026-05-08 14:37 | 49.86996 | 17.57292 | 38090 ft | 451 kts | 352° |
| 2026-05-08 14:38 | 49.93218 | 17.56429 | 38099 ft | 451 kts | 351° |
| 2026-05-08 14:38 | 49.99480 | 17.55558 | 38097 ft | 451 kts | 352° |
| 2026-05-08 14:39 | 50.05688 | 17.54692 | 38101 ft | 451 kts | 352° |
| 2026-05-08 14:39 | 50.11896 | 17.53824 | 38112 ft | 451 kts | 352° |
| 2026-05-08 14:40 | 50.18129 | 17.52951 | 38107 ft | 451 kts | 352° |
| 2026-05-08 14:40 | 50.24358 | 17.52074 | 38151 ft | 452 kts | 352° |
| 2026-05-08 14:41 | 50.30662 | 17.51581 | 38124 ft | 454 kts | 356° |
| 2026-05-08 14:41 | 50.36947 | 17.51425 | 38118 ft | 454 kts | 356° |
| 2026-05-08 14:42 | 50.43242 | 17.51285 | 38116 ft | 454 kts | 356° |
| 2026-05-08 14:42 | 50.49532 | 17.51138 | 38121 ft | 454 kts | 356° |
| 2026-05-08 14:43 | 50.55821 | 17.50985 | 38120 ft | 453 kts | 356° |
| 2026-05-08 14:43 | 50.62078 | 17.50830 | 38123 ft | 454 kts | 356° |
| 2026-05-08 14:44 | 50.68368 | 17.50676 | 38122 ft | 454 kts | 356° |
| 2026-05-08 14:44 | 50.74686 | 17.50518 | 38120 ft | 454 kts | 356° |
| 2026-05-08 14:45 | 50.80985 | 17.50360 | 38126 ft | 454 kts | 356° |
| 2026-05-08 14:45 | 50.87278 | 17.50208 | 38125 ft | 455 kts | 356° |
| 2026-05-08 14:46 | 50.93548 | 17.50055 | 38124 ft | 455 kts | 356° |
| 2026-05-08 14:46 | 50.99878 | 17.49896 | 38123 ft | 454 kts | 356° |
| 2026-05-08 14:47 | 51.06184 | 17.49738 | 38122 ft | 455 kts | 356° |
| 2026-05-08 14:47 | 51.12481 | 17.49578 | 38124 ft | 455 kts | 356° |
| 2026-05-08 14:48 | 51.18778 | 17.49419 | 38129 ft | 455 kts | 356° |
| 2026-05-08 14:48 | 51.25119 | 17.49259 | 38121 ft | 455 kts | 356° |
| 2026-05-08 14:49 | 51.31408 | 17.49099 | 38124 ft | 456 kts | 357° |
| 2026-05-08 14:49 | 51.37740 | 17.48938 | 38126 ft | 455 kts | 357° |
| 2026-05-08 14:50 | 51.44073 | 17.48775 | 38129 ft | 456 kts | 357° |
| 2026-05-08 14:50 | 51.50356 | 17.48615 | 38134 ft | 456 kts | 357° |
| 2026-05-08 14:51 | 51.56687 | 17.48449 | 38131 ft | 456 kts | 357° |
| 2026-05-08 14:51 | 51.63028 | 17.48285 | 38131 ft | 457 kts | 357° |
| 2026-05-08 14:52 | 51.72488 | 17.48040 | 38133 ft | 457 kts | 357° |
| 2026-05-08 14:53 | 51.78853 | 17.47876 | 38138 ft | 457 kts | 357° |
| 2026-05-08 14:53 | 51.85157 | 17.47710 | 38134 ft | 457 kts | 357° |
| 2026-05-08 14:54 | 51.91486 | 17.47545 | 38146 ft | 457 kts | 357° |
| 2026-05-08 14:54 | 51.97856 | 17.47380 | 38141 ft | 456 kts | 357° |
| 2026-05-08 14:55 | 52.04176 | 17.47216 | 38144 ft | 456 kts | 357° |
| 2026-05-08 14:55 | 52.10502 | 17.47048 | 38144 ft | 458 kts | 357° |
| 2026-05-08 14:56 | 52.16860 | 17.46887 | 38145 ft | 459 kts | 358° |
| 2026-05-08 14:56 | 52.23216 | 17.46721 | 38144 ft | 458 kts | 358° |
| 2026-05-08 14:57 | 52.29573 | 17.46553 | 38144 ft | 458 kts | 358° |
| 2026-05-08 14:57 | 52.35903 | 17.46384 | 38146 ft | 458 kts | 358° |
| 2026-05-08 14:58 | 52.42271 | 17.46213 | 38149 ft | 458 kts | 358° |
| 2026-05-08 14:58 | 52.48633 | 17.46041 | 38142 ft | 459 kts | 358° |
| 2026-05-08 14:59 | 52.54986 | 17.45869 | 38144 ft | 460 kts | 358° |
| 2026-05-08 14:59 | 52.64555 | 17.45609 | 38144 ft | 460 kts | 358° |
| 2026-05-08 15:00 | 52.70918 | 17.45435 | 38145 ft | 460 kts | 358° |
| 2026-05-08 15:00 | 52.77277 | 17.45262 | 38152 ft | 459 kts | 358° |
| 2026-05-08 15:01 | 52.83653 | 17.45088 | 38150 ft | 459 kts | 358° |
| 2026-05-08 15:01 | 52.90020 | 17.44914 | 38154 ft | 459 kts | 358° |
| 2026-05-08 15:02 | 52.96376 | 17.44740 | 38149 ft | 459 kts | 358° |
| 2026-05-08 15:02 | 53.02756 | 17.44564 | 38155 ft | 460 kts | 358° |
| 2026-05-08 15:03 | 53.09122 | 17.44391 | 38159 ft | 461 kts | 358° |
| 2026-05-08 15:03 | 53.15537 | 17.44212 | 38165 ft | 461 kts | 358° |
| 2026-05-08 15:04 | 53.21894 | 17.44034 | 38174 ft | 461 kts | 358° |
| 2026-05-08 15:04 | 53.28295 | 17.43856 | 38173 ft | 461 kts | 358° |
| 2026-05-08 15:05 | 53.34676 | 17.43675 | 38178 ft | 461 kts | 358° |
| 2026-05-08 15:05 | 53.41074 | 17.43491 | 38172 ft | 461 kts | 358° |
| 2026-05-08 15:06 | 53.47440 | 17.43309 | 38176 ft | 461 kts | 358° |
| 2026-05-08 15:06 | 53.53808 | 17.43130 | 38176 ft | 461 kts | 358° |
| 2026-05-08 15:07 | 53.60180 | 17.42948 | 38172 ft | 460 kts | 358° |
| 2026-05-08 15:07 | 53.66559 | 17.42767 | 38162 ft | 460 kts | 358° |
| 2026-05-08 15:08 | 53.71910 | 17.42616 | 38159 ft | 460 kts | 358° |
| 2026-05-08 15:08 | 53.79331 | 17.42405 | 38158 ft | 460 kts | 358° |
| 2026-05-08 15:09 | 53.85693 | 17.42223 | 38156 ft | 460 kts | 358° |
| 2026-05-08 15:09 | 53.92080 | 17.42041 | 38158 ft | 460 kts | 358° |
| 2026-05-08 15:10 | 53.98426 | 17.41861 | 38161 ft | 460 kts | 358° |
| 2026-05-08 15:10 | 54.04839 | 17.41672 | 38159 ft | 460 kts | 358° |
| 2026-05-08 15:11 | 54.11196 | 17.41486 | 38164 ft | 460 kts | 359° |
| 2026-05-08 15:11 | 54.17557 | 17.41302 | 38179 ft | 460 kts | 359° |
| 2026-05-08 15:12 | 54.23940 | 17.41115 | 38189 ft | 460 kts | 359° |
| 2026-05-08 15:12 | 54.30319 | 17.40929 | 38193 ft | 460 kts | 359° |
| 2026-05-08 15:13 | 54.36709 | 17.40735 | 38195 ft | 460 kts | 358° |
| 2026-05-08 15:13 | 54.43019 | 17.39907 | 38195 ft | 458 kts | 353° |
| 2026-05-08 15:14 | 54.49332 | 17.38693 | 38201 ft | 458 kts | 353° |
| 2026-05-08 15:14 | 54.55651 | 17.37464 | 38203 ft | 459 kts | 353° |
| 2026-05-08 15:15 | 54.61972 | 17.36243 | 38206 ft | 460 kts | 353° |
| 2026-05-08 15:15 | 54.68311 | 17.35020 | 38213 ft | 460 kts | 353° |
| 2026-05-08 15:16 | 54.74638 | 17.33799 | 38216 ft | 460 kts | 352° |
| 2026-05-08 15:16 | 54.80958 | 17.32574 | 38221 ft | 460 kts | 352° |
| 2026-05-08 15:17 | 54.87294 | 17.31341 | 38225 ft | 460 kts | 352° |
| 2026-05-08 15:17 | 54.93617 | 17.30108 | 38233 ft | 460 kts | 352° |
| 2026-05-08 15:18 | 54.99947 | 17.28871 | 38232 ft | 459 kts | 352° |
| 2026-05-08 15:18 | 55.06259 | 17.27635 | 38236 ft | 459 kts | 352° |
| 2026-05-08 15:19 | 55.12611 | 17.26386 | 38242 ft | 459 kts | 352° |
| 2026-05-08 15:19 | 55.18917 | 17.25143 | 38246 ft | 460 kts | 352° |
| 2026-05-08 15:20 | 55.25271 | 17.23880 | 38251 ft | 460 kts | 352° |
| 2026-05-08 15:20 | 55.31591 | 17.22621 | 38250 ft | 460 kts | 352° |
| 2026-05-08 15:21 | 55.37932 | 17.21357 | 38253 ft | 460 kts | 352° |
| 2026-05-08 15:21 | 55.44240 | 17.20096 | 38247 ft | 460 kts | 352° |
| 2026-05-08 15:22 | 55.50559 | 17.18832 | 38256 ft | 460 kts | 352° |
| 2026-05-08 15:22 | 55.56906 | 17.17556 | 38257 ft | 460 kts | 352° |
| 2026-05-08 15:23 | 55.63263 | 17.16527 | 38258 ft | 461 kts | 356° |
| 2026-05-08 15:23 | 55.69656 | 17.16640 | 38263 ft | 462 kts | 1° |
| 2026-05-08 15:24 | 55.76078 | 17.17253 | 38266 ft | 462 kts | 2° |
| 2026-05-08 15:24 | 55.82458 | 17.17887 | 38271 ft | 462 kts | 2° |
| 2026-05-08 15:25 | 55.88829 | 17.18504 | 38273 ft | 462 kts | 2° |
| 2026-05-08 15:25 | 55.95233 | 17.19122 | 38270 ft | 461 kts | 2° |
| 2026-05-08 15:26 | 56.01633 | 17.19740 | 38276 ft | 462 kts | 2° |
| 2026-05-08 15:26 | 56.08007 | 17.20355 | 38281 ft | 462 kts | 2° |